createdAt,value
2019-03-04T00:02:55.947Z,4.42
2019-03-04T00:08:04.855Z,6.31
2019-03-04T00:13:12.275Z,4.78
2019-03-04T00:18:22.723Z,4.92
2019-03-04T00:23:48.249Z,3.22
2019-03-04T00:28:39.532Z,5.90
2019-03-04T00:33:36.948Z,5.05
2019-03-04T00:43:48.350Z,3.94
2019-03-04T00:48:57.382Z,5.33
2019-03-04T00:54:06.275Z,5.02
2019-03-04T00:59:28.918Z,5.89
2019-03-04T01:04:18.072Z,4.60
2019-03-04T01:09:25.693Z,4.50
2019-03-04T01:14:35.699Z,3.26
2019-03-04T01:19:34.855Z,3.63
2019-03-04T01:24:43.899Z,2.23
2019-03-04T01:34:59.840Z,2.77
2019-03-04T01:40:08.662Z,2.35
2019-03-04T01:45:17.580Z,2.52
2019-03-04T01:50:26.464Z,3.12
2019-03-04T01:55:35.977Z,3.39
2019-03-04T02:00:45.605Z,4.21
2019-03-04T02:05:52.366Z,3.11
2019-03-04T02:11:01.226Z,4.08
2019-03-04T02:16:10.100Z,2.44
2019-03-04T02:21:18.308Z,2.95
2019-03-04T02:26:27.883Z,3.67
2019-03-04T02:31:37.631Z,3.48
2019-03-04T02:36:46.553Z,3.69
2019-03-04T02:41:55.433Z,3.41
2019-03-04T02:47:10.389Z,3.13
2019-03-04T02:52:10.170Z,2.78
2019-03-04T02:57:25.344Z,2.56
2019-03-04T03:02:23.972Z,2.39
2019-03-04T03:07:34.696Z,2.65
2019-03-04T03:12:33.508Z,3.05
2019-03-04T03:17:41.563Z,4.32
2019-03-04T03:22:53.119Z,3.55
2019-03-04T03:27:50.533Z,4.78
2019-03-04T03:32:59.377Z,3.58
2019-03-04T03:38:06.749Z,4.35
2019-03-04T03:43:16.204Z,6.05
2019-03-04T03:48:26.084Z,6.21
2019-03-04T03:53:35.083Z,5.74
2019-03-04T03:58:44.075Z,6.54
2019-03-04T04:03:54.316Z,4.33
2019-03-04T04:08:54.310Z,4.41
2019-03-04T04:14:03.173Z,4.01
2019-03-04T04:19:12.029Z,3.94
2019-03-04T04:24:19.426Z,4.45
2019-03-04T04:29:28.592Z,6.36
2019-03-04T04:34:37.433Z,4.36
2019-03-04T04:39:46.245Z,4.76
2019-03-04T04:44:55.058Z,5.13
2019-03-04T04:50:04.212Z,5.12
2019-03-04T04:55:13.062Z,5.44
2019-03-04T05:00:21.891Z,6.84
2019-03-04T05:05:30.815Z,6.73
2019-03-04T05:10:39.702Z,6.14
2019-03-04T05:15:48.694Z,5.50
2019-03-04T05:20:59.432Z,7.78
2019-03-04T05:25:58.256Z,5.12
2019-03-04T05:31:07.127Z,7.50
2019-03-04T05:36:15.975Z,6.83
2019-03-04T05:41:24.847Z,7.20
2019-03-04T05:46:33.743Z,8.64
2019-03-04T05:51:42.886Z,7.93
2019-03-04T05:56:51.879Z,6.30
2019-03-04T06:02:03.040Z,8.55
2019-03-04T06:07:01.788Z,7.61
2019-03-04T06:12:11.385Z,5.36
2019-03-04T06:17:20.450Z,7.20
2019-03-04T06:22:29.457Z,4.93
2019-03-04T06:27:38.504Z,6.40
2019-03-04T06:32:47.531Z,6.92
2019-03-04T06:37:56.398Z,6.71
2019-03-04T06:43:05.251Z,6.29
2019-03-04T06:48:14.546Z,5.36
2019-03-04T06:53:23.787Z,5.36
2019-03-04T06:58:31.773Z,7.34
2019-03-04T07:03:40.620Z,4.20
2019-03-04T07:08:49.683Z,7.37
2019-03-04T07:13:58.672Z,5.46
2019-03-04T07:19:08.540Z,5.00
2019-03-04T07:24:17.468Z,4.31
2019-03-04T07:29:26.426Z,4.91
2019-03-04T07:34:35.290Z,5.47
2019-03-04T07:39:44.107Z,4.22
2019-03-04T07:44:53.010Z,5.05
2019-03-04T07:50:01.865Z,5.59
2019-03-04T07:55:10.839Z,5.26
2019-03-04T08:00:19.847Z,5.05
2019-03-04T08:05:28.679Z,5.88
2019-03-04T08:10:37.565Z,6.06
2019-03-04T08:15:46.443Z,5.56
2019-03-04T08:20:56.612Z,4.71
2019-03-04T08:25:55.540Z,4.10
2019-03-04T08:31:04.532Z,5.57
2019-03-04T08:36:13.718Z,4.56
2019-03-04T08:41:22.583Z,5.03
2019-03-04T08:46:31.589Z,4.99
2019-03-04T08:51:40.475Z,5.00
2019-03-04T08:56:49.359Z,4.05
2019-03-04T09:01:58.239Z,4.12
2019-03-04T09:07:07.118Z,4.52
2019-03-04T09:12:15.988Z,5.25
2019-03-04T09:17:24.837Z,5.09
2019-03-04T09:22:33.745Z,4.70
2019-03-04T09:27:42.819Z,4.05
2019-03-04T09:32:51.719Z,4.74
2019-03-04T09:38:00.572Z,3.86
2019-03-04T09:43:09.512Z,4.22
2019-03-04T09:48:18.401Z,4.43
2019-03-04T09:53:27.362Z,3.64
2019-03-04T09:58:36.328Z,2.75
2019-03-04T10:03:45.206Z,2.56
2019-03-04T10:08:54.046Z,2.40
2019-03-04T10:14:02.940Z,2.54
2019-03-04T10:19:11.784Z,3.70
2019-03-04T10:24:20.672Z,4.61
2019-03-04T10:29:29.525Z,3.73
2019-03-04T10:34:38.351Z,4.77
2019-03-04T10:39:47.351Z,4.38
2019-03-04T10:44:56.276Z,2.63
2019-03-04T10:50:05.118Z,3.93
2019-03-04T10:55:14.004Z,3.44
2019-03-04T11:00:22.864Z,4.35
2019-03-04T11:05:31.920Z,1.95
2019-03-04T11:10:40.810Z,2.00
2019-03-04T11:15:49.671Z,3.11
2019-03-04T11:20:58.659Z,1.97
2019-03-04T11:26:07.568Z,1.48
2019-03-04T11:31:16.453Z,1.70
2019-03-04T11:36:25.306Z,2.11
2019-03-04T11:41:34.214Z,4.33
2019-03-04T11:46:43.057Z,6.84
2019-03-04T11:51:51.912Z,4.65
2019-03-04T11:57:00.793Z,4.81
2019-03-04T12:02:09.598Z,3.04
2019-03-04T12:07:18.480Z,2.91
2019-03-04T12:12:27.339Z,4.17
2019-03-04T12:17:36.170Z,4.15
2019-03-04T12:22:45.196Z,4.95
2019-03-04T12:27:54.165Z,7.59
2019-03-04T12:33:03.048Z,9.82
2019-03-04T12:38:10.415Z,7.57
2019-03-04T12:43:19.728Z,7.16
2019-03-04T12:48:28.587Z,8.25
2019-03-04T12:53:37.679Z,8.00
2019-03-04T12:58:46.333Z,11.66
2019-03-04T13:03:55.273Z,8.41
2019-03-04T13:09:13.867Z,10.38
2019-03-04T13:14:12.818Z,7.36
2019-03-04T13:19:21.696Z,7.35
2019-03-04T13:24:30.546Z,7.80
2019-03-04T13:29:39.592Z,7.65
2019-03-04T13:34:48.488Z,8.22
2019-03-04T13:39:57.375Z,6.35
2019-03-04T13:45:08.348Z,6.21
2019-03-04T13:50:18.801Z,6.43
2019-03-04T13:55:16.381Z,8.53
2019-03-04T14:01:59.168Z,7.46
2019-03-04T14:05:38.416Z,7.53
2019-03-04T14:10:46.786Z,8.17
2019-03-04T14:15:44.151Z,5.85
2019-03-04T14:20:54.088Z,9.08
2019-03-04T14:26:03.010Z,8.64
2019-03-04T14:31:26.204Z,10.08
2019-03-04T14:36:13.828Z,7.12
2019-03-04T14:41:21.272Z,11.05
2019-03-04T14:46:28.741Z,9.03
2019-03-04T14:51:37.871Z,12.19
2019-03-04T14:56:48.888Z,10.49
2019-03-04T15:01:47.765Z,7.70
2019-03-04T15:06:57.680Z,8.05
2019-03-04T15:12:06.367Z,9.22
2019-03-04T15:17:27.760Z,12.03
2019-03-04T15:22:19.964Z,12.74
2019-03-04T15:27:20.416Z,11.90
2019-03-04T15:32:44.577Z,11.54
2019-03-04T15:38:02.940Z,18.27
2019-03-04T15:42:46.161Z,13.28
2019-03-04T15:47:57.427Z,11.26
2019-03-04T15:52:58.803Z,9.30
2019-03-04T15:57:58.897Z,6.04
2019-03-04T16:03:01.472Z,5.71
2019-03-04T16:07:51.371Z,9.21
2019-03-04T16:12:53.191Z,14.92
2019-03-04T16:17:52.414Z,9.47
2019-03-04T16:23:02.299Z,5.87
2019-03-04T16:28:11.155Z,3.88
2019-03-04T16:33:19.976Z,2.22
2019-03-04T16:38:39.914Z,2.87
2019-03-04T16:43:39.195Z,2.92
2019-03-04T16:48:48.307Z,4.42
2019-03-04T16:53:59.176Z,13.34
2019-03-04T16:58:58.077Z,6.05
2019-03-04T17:04:07.012Z,5.78
2019-03-04T17:09:16.078Z,5.79
2019-03-04T17:14:24.945Z,6.32
2019-03-04T17:19:33.921Z,5.17
2019-03-04T17:24:42.895Z,6.89
2019-03-04T17:29:51.876Z,1.85
2019-03-04T17:35:00.752Z,3.62
2019-03-04T17:40:09.719Z,2.24
2019-03-04T17:45:18.589Z,4.68
2019-03-04T17:50:28.080Z,5.97
2019-03-04T17:55:37.094Z,7.48
2019-03-04T18:00:46.084Z,9.53
2019-03-04T18:05:54.960Z,5.89
2019-03-04T18:11:04.673Z,6.32
2019-03-04T18:16:13.853Z,5.83
2019-03-04T18:21:22.781Z,5.49
2019-03-04T18:26:33.656Z,5.03
2019-03-04T18:31:35.367Z,3.48
2019-03-04T18:36:35.222Z,3.62
2019-03-04T18:41:44.320Z,3.43
2019-03-04T18:46:53.350Z,3.52
2019-03-04T18:52:02.131Z,2.09
2019-03-04T18:57:10.995Z,3.78
2019-03-04T19:02:19.871Z,3.98
2019-03-04T19:07:28.846Z,4.84
2019-03-04T19:12:37.715Z,4.22
2019-03-04T19:17:47.190Z,4.39
2019-03-04T19:28:02.771Z,6.93
2019-03-04T19:33:11.597Z,4.39
2019-03-04T19:38:20.497Z,3.84
2019-03-04T19:43:32.891Z,5.10
2019-03-04T19:48:37.830Z,6.44
2019-03-04T19:53:46.712Z,8.35
2019-03-04T19:58:58.295Z,6.04
2019-03-04T20:03:59.857Z,6.45
2019-03-04T20:08:58.864Z,7.60
2019-03-04T20:14:07.999Z,3.81
2019-03-04T20:34:33.935Z,7.94
2019-03-04T20:39:55.689Z,8.40
2019-03-04T20:44:34.481Z,6.42
2019-03-04T20:49:45.631Z,5.69
2019-03-04T20:54:56.973Z,3.69
2019-03-04T20:59:48.003Z,2.39
2019-03-04T21:04:46.946Z,3.11
2019-03-04T21:09:55.818Z,3.68
2019-03-04T21:15:04.685Z,5.34
2019-03-04T21:20:15.744Z,6.44
2019-03-04T21:25:14.579Z,6.69
2019-03-04T21:30:23.442Z,6.18
2019-03-04T21:35:32.288Z,7.36
2019-03-04T21:40:41.351Z,5.25
2019-03-04T21:45:50.168Z,4.55
2019-03-04T21:50:59.029Z,6.26
2019-03-04T21:56:07.920Z,3.66
2019-03-04T22:01:16.819Z,6.00
2019-03-04T22:06:25.770Z,6.12
2019-03-04T22:11:34.626Z,5.19
2019-03-04T22:16:43.531Z,3.80
2019-03-04T22:21:52.430Z,4.56
2019-03-04T22:27:01.353Z,4.24
2019-03-04T22:32:12.865Z,3.35
2019-03-04T22:37:18.455Z,4.32
2019-03-04T22:42:17.399Z,6.95
2019-03-04T22:47:26.350Z,4.17
2019-03-04T22:52:35.218Z,5.24
2019-03-04T22:57:44.232Z,4.11
2019-03-04T23:02:55.060Z,4.47
2019-03-04T23:08:01.469Z,8.19
2019-03-04T23:13:12.130Z,4.63
2019-03-04T23:23:17.485Z,3.08
2019-03-04T23:28:25.580Z,3.67
2019-03-04T23:33:35.002Z,3.54
2019-03-04T23:38:42.411Z,2.75
2019-03-04T23:43:55.556Z,4.33
2019-03-04T23:48:55.589Z,3.31
2019-03-04T23:53:53.017Z,3.64
2019-03-04T23:59:02.917Z,4.14
